createdAt,value
2019-03-28T00:02:20.499Z,64.73
2019-03-28T00:04:51.948Z,52.78
2019-03-28T00:07:24.302Z,56.85
2019-03-28T00:09:55.832Z,51.58
2019-03-28T00:12:27.067Z,58.90
2019-03-28T00:14:58.381Z,63.47
2019-03-28T00:17:29.727Z,52.35
2019-03-28T00:20:01.028Z,58.87
2019-03-28T00:22:43.014Z,58.15
2019-03-28T00:25:14.747Z,57.60
2019-03-28T00:27:46.311Z,59.03
2019-03-28T00:30:19.444Z,52.57
2019-03-28T00:32:50.774Z,50.70
2019-03-28T00:35:22.122Z,54.65
2019-03-28T00:37:53.459Z,51.58
2019-03-28T00:40:24.747Z,45.55
2019-03-28T00:42:56.001Z,58.43
2019-03-28T00:45:27.353Z,61.02
2019-03-28T00:47:58.662Z,32.17
2019-03-28T00:50:32.863Z,54.03
2019-03-28T00:53:03.067Z,57.08
2019-03-28T00:55:34.399Z,67.73
2019-03-28T00:58:05.715Z,64.40
2019-03-28T01:00:37.056Z,73.83
2019-03-28T01:03:08.396Z,59.30
2019-03-28T01:05:39.627Z,60.52
2019-03-28T01:08:10.975Z,56.60
2019-03-28T01:10:42.354Z,55.90
2019-03-28T01:13:13.614Z,52.10
2019-03-28T01:15:44.895Z,53.73
2019-03-28T01:18:16.102Z,55.23
2019-03-28T01:20:47.451Z,59.93
2019-03-28T01:23:18.716Z,60.98
2019-03-28T01:25:50.054Z,55.58
2019-03-28T01:28:21.363Z,59.58
2019-03-28T01:30:52.722Z,47.90
2019-03-28T01:33:23.968Z,53.52
2019-03-28T01:35:55.291Z,62.30
2019-03-28T01:38:26.623Z,65.47
2019-03-28T01:40:57.939Z,70.22
2019-03-28T01:43:29.247Z,52.05
2019-03-28T01:46:00.523Z,45.88
2019-03-28T01:48:31.772Z,54.85
2019-03-28T01:51:03.101Z,54.85
2019-03-28T01:53:34.463Z,62.67
2019-03-28T01:56:05.780Z,62.27
2019-03-28T01:58:37.087Z,60.03
2019-03-28T02:01:08.422Z,66.42
2019-03-28T02:03:39.629Z,75.55
2019-03-28T02:06:10.936Z,63.87
2019-03-28T02:08:42.306Z,65.50
2019-03-28T02:11:13.616Z,58.10
2019-03-28T02:13:44.947Z,59.38
2019-03-28T02:16:16.273Z,57.03
2019-03-28T02:18:47.524Z,64.85
2019-03-28T02:21:18.911Z,57.25
2019-03-28T02:23:50.267Z,68.12
2019-03-28T02:26:21.540Z,73.05
2019-03-28T02:28:52.855Z,61.03
2019-03-28T02:31:24.158Z,63.13
2019-03-28T02:33:55.442Z,82.92
2019-03-28T02:36:26.649Z,89.77
2019-03-28T02:38:58.585Z,73.92
2019-03-28T02:41:30.047Z,80.67
2019-03-28T02:44:01.319Z,72.92
2019-03-28T02:46:32.647Z,66.30
2019-03-28T02:49:04.005Z,71.90
2019-03-28T02:51:35.338Z,82.10
2019-03-28T02:54:06.690Z,81.05
2019-03-28T02:56:37.945Z,85.42
2019-03-28T02:59:09.257Z,74.37
2019-03-28T03:01:40.823Z,69.65
2019-03-28T03:04:12.121Z,77.22
2019-03-28T03:06:43.414Z,80.10
2019-03-28T03:14:39.763Z,83.10
2019-03-28T03:17:11.109Z,74.22
2019-03-28T03:19:42.496Z,82.05
2019-03-28T03:22:13.908Z,97.37
2019-03-28T03:24:45.232Z,74.62
2019-03-28T03:27:16.540Z,67.63
2019-03-28T03:29:47.942Z,82.70
2019-03-28T03:32:19.593Z,85.72
2019-03-28T03:34:50.999Z,86.57
2019-03-28T03:37:22.412Z,88.67
2019-03-28T03:39:53.723Z,77.75
2019-03-28T03:42:25.035Z,74.23
2019-03-28T03:44:56.378Z,78.10
2019-03-28T03:47:27.686Z,91.97
2019-03-28T03:49:58.986Z,76.90
2019-03-28T03:52:30.351Z,77.20
2019-03-28T03:55:01.671Z,86.75
2019-03-28T03:57:32.989Z,78.85
2019-03-28T04:00:04.627Z,79.95
2019-03-28T04:02:36.598Z,79.62
2019-03-28T04:05:08.744Z,71.95
2019-03-28T04:07:39.927Z,78.80
2019-03-28T04:10:11.401Z,75.32
2019-03-28T04:12:42.802Z,79.05
2019-03-28T04:15:14.172Z,71.28
2019-03-28T04:17:45.507Z,65.50
2019-03-28T04:20:16.864Z,65.32
2019-03-28T04:22:48.215Z,65.63
2019-03-28T04:25:19.532Z,67.55
2019-03-28T04:27:50.869Z,56.05
2019-03-28T04:30:22.792Z,70.00
2019-03-28T04:32:54.374Z,51.58
2019-03-28T04:35:25.742Z,69.50
2019-03-28T04:37:57.132Z,65.03
2019-03-28T04:40:28.492Z,71.10
2019-03-28T04:42:59.877Z,70.97
2019-03-28T04:45:31.074Z,71.22
2019-03-28T04:48:02.377Z,61.05
2019-03-28T04:50:33.750Z,59.90
2019-03-28T04:53:05.115Z,64.67
2019-03-28T04:55:36.551Z,58.35
2019-03-28T04:58:07.889Z,70.40
2019-03-28T05:00:39.117Z,74.50
2019-03-28T05:03:10.437Z,63.63
2019-03-28T05:05:41.780Z,79.95
2019-03-28T05:08:13.091Z,75.90
2019-03-28T05:10:44.409Z,71.42
2019-03-28T05:13:15.767Z,80.83
2019-03-28T05:15:47.014Z,89.90
2019-03-28T05:18:18.328Z,72.42
2019-03-28T05:20:49.751Z,60.90
2019-03-28T05:23:21.096Z,80.75
2019-03-28T05:25:52.429Z,65.92
2019-03-28T05:28:23.693Z,76.00
2019-03-28T05:30:57.368Z,78.28
2019-03-28T05:33:28.724Z,84.42
2019-03-28T05:36:00.077Z,75.40
2019-03-28T05:38:31.394Z,78.12
2019-03-28T05:41:02.724Z,76.37
2019-03-28T05:43:34.048Z,74.30
2019-03-28T05:46:05.400Z,91.08
2019-03-28T05:48:36.774Z,76.82
2019-03-28T05:51:08.186Z,83.85
2019-03-28T05:53:39.406Z,83.35
2019-03-28T05:56:10.717Z,94.95
2019-03-28T05:58:41.990Z,78.80
2019-03-28T06:01:13.396Z,67.90
2019-03-28T06:03:44.725Z,78.10
2019-03-28T06:06:16.047Z,94.70
2019-03-28T06:08:47.358Z,72.55
2019-03-28T06:11:18.735Z,94.95
2019-03-28T06:13:49.931Z,80.60
2019-03-28T06:16:21.182Z,77.45
2019-03-28T06:18:52.543Z,78.57
2019-03-28T06:21:23.861Z,87.33
2019-03-28T06:23:55.102Z,86.57
2019-03-28T06:26:26.403Z,76.42
2019-03-28T06:28:57.726Z,79.47
2019-03-28T06:31:29.045Z,80.00
2019-03-28T06:34:00.536Z,76.42
2019-03-28T06:36:32.035Z,67.43
2019-03-28T06:39:03.723Z,70.60
2019-03-28T06:41:34.999Z,68.00
2019-03-28T06:44:06.363Z,78.02
2019-03-28T06:46:37.881Z,63.42
2019-03-28T06:49:09.024Z,62.85
2019-03-28T06:51:40.316Z,74.93
2019-03-28T06:54:11.584Z,62.88
2019-03-28T06:56:43.488Z,60.92
2019-03-28T06:59:15.096Z,65.75
2019-03-28T07:01:46.462Z,76.60
2019-03-28T07:04:17.776Z,65.53
2019-03-28T07:06:49.030Z,60.23
2019-03-28T07:09:20.379Z,66.15
2019-03-28T07:11:51.666Z,62.75
2019-03-28T07:14:22.910Z,73.15
2019-03-28T07:16:54.188Z,71.87
2019-03-28T07:19:25.445Z,79.72
2019-03-28T07:21:56.765Z,63.92
2019-03-28T07:24:28.091Z,75.87
2019-03-28T07:26:59.470Z,60.95
2019-03-28T07:29:30.790Z,76.25
2019-03-28T07:32:02.100Z,67.97
2019-03-28T07:34:33.303Z,69.75
2019-03-28T07:37:04.620Z,74.70
2019-03-28T07:39:36.045Z,70.73
2019-03-28T07:42:07.410Z,77.50
2019-03-28T07:44:38.627Z,79.45
2019-03-28T07:47:09.929Z,76.15
2019-03-28T07:49:41.252Z,65.53
2019-03-28T07:52:12.565Z,66.85
2019-03-28T07:54:43.882Z,69.95
2019-03-28T07:57:15.417Z,76.40
2019-03-28T07:59:46.945Z,79.60
2019-03-28T08:02:18.165Z,75.25
2019-03-28T08:04:49.438Z,81.95
2019-03-28T08:07:20.772Z,79.87
2019-03-28T08:09:52.094Z,85.10
2019-03-28T08:12:23.636Z,73.52
2019-03-28T08:14:55.105Z,93.72
2019-03-28T08:17:26.397Z,70.57
2019-03-28T08:19:57.629Z,80.62
2019-03-28T08:22:29.869Z,69.32
2019-03-28T08:25:01.328Z,67.60
2019-03-28T08:27:34.275Z,77.22
2019-03-28T08:30:17.551Z,60.33
2019-03-28T08:32:40.089Z,79.90
2019-03-28T08:35:12.615Z,74.82
2019-03-28T08:37:44.521Z,58.45
2019-03-28T08:40:43.784Z,66.12
2019-03-28T08:43:15.430Z,70.62
2019-03-28T08:45:46.659Z,70.08
2019-03-28T08:48:19.700Z,72.12
2019-03-28T08:50:51.004Z,65.87
2019-03-28T08:53:22.305Z,61.70
2019-03-28T08:55:53.638Z,65.05
2019-03-28T08:58:24.938Z,62.45
2019-03-28T09:00:56.393Z,44.70
2019-03-28T09:03:27.764Z,52.30
2019-03-28T09:05:59.110Z,59.88
2019-03-28T09:08:30.441Z,56.95
2019-03-28T09:11:01.689Z,51.42
2019-03-28T09:13:33.082Z,48.73
2019-03-28T09:16:04.386Z,61.90
2019-03-28T09:18:35.690Z,59.63
2019-03-28T09:21:07.095Z,51.30
2019-03-28T09:23:38.402Z,63.50
2019-03-28T09:26:09.750Z,57.05
2019-03-28T09:28:40.987Z,50.45
2019-03-28T09:31:19.691Z,42.25
2019-03-28T09:33:45.295Z,50.45
2019-03-28T09:36:16.615Z,46.13
2019-03-28T09:38:47.871Z,41.23
2019-03-28T09:41:19.230Z,47.78
2019-03-28T09:43:55.749Z,33.58
2019-03-28T09:46:23.584Z,48.28
2019-03-28T09:48:54.969Z,42.03
2019-03-28T09:51:26.312Z,40.23
2019-03-28T09:53:57.593Z,36.75
2019-03-28T09:56:28.996Z,33.65
2019-03-28T09:59:00.555Z,30.75
2019-03-28T10:01:31.893Z,46.88
2019-03-28T10:04:06.245Z,42.38
2019-03-28T10:06:36.208Z,28.32
2019-03-28T10:09:09.167Z,30.68
2019-03-28T10:11:40.473Z,21.27
2019-03-28T10:14:11.786Z,27.37
2019-03-28T10:16:43.106Z,27.32
2019-03-28T10:19:14.409Z,25.92
2019-03-28T10:21:46.218Z,30.33
2019-03-28T10:24:17.545Z,25.65
2019-03-28T10:26:48.849Z,22.43
2019-03-28T10:29:20.081Z,22.15
2019-03-28T10:31:51.514Z,20.10
2019-03-28T10:34:22.779Z,19.15
2019-03-28T10:36:54.106Z,20.77
2019-03-28T10:39:25.552Z,24.50
2019-03-28T10:41:56.856Z,24.77
2019-03-28T10:44:28.157Z,24.37
2019-03-28T10:46:59.505Z,21.75
2019-03-28T10:49:30.796Z,19.65
2019-03-28T10:52:04.055Z,18.95
2019-03-28T10:54:35.067Z,20.73
2019-03-28T10:57:13.627Z,19.70
2019-03-28T10:59:39.620Z,21.23
2019-03-28T11:02:10.968Z,21.42
2019-03-28T11:04:42.256Z,23.73
2019-03-28T11:07:13.610Z,28.02
2019-03-28T11:09:45.061Z,26.48
2019-03-28T11:12:16.378Z,22.22
2019-03-28T11:14:47.748Z,17.95
2019-03-28T11:17:19.015Z,22.73
2019-03-28T11:19:50.250Z,19.85
2019-03-28T11:22:21.591Z,27.95
2019-03-28T11:24:52.929Z,32.67
2019-03-28T11:27:24.106Z,25.20
2019-03-28T11:29:55.428Z,28.80
2019-03-28T11:32:26.596Z,19.90
2019-03-28T11:34:58.027Z,26.60
2019-03-28T11:37:29.344Z,23.75
2019-03-28T11:40:00.493Z,30.40
2019-03-28T11:42:31.848Z,22.02
2019-03-28T11:45:03.232Z,27.90
2019-03-28T11:47:34.532Z,23.10
2019-03-28T11:50:06.503Z,22.35
2019-03-28T11:52:37.906Z,25.53
2019-03-28T11:55:10.892Z,17.15
2019-03-28T11:57:42.261Z,22.90
2019-03-28T12:00:15.191Z,30.12
2019-03-28T12:02:46.499Z,21.27
2019-03-28T12:05:17.880Z,20.90
2019-03-28T12:07:49.210Z,19.07
2019-03-28T12:10:20.623Z,23.00
2019-03-28T12:12:51.912Z,15.78
2019-03-28T12:15:23.223Z,17.85
2019-03-28T12:17:54.645Z,18.70
2019-03-28T12:20:25.944Z,22.35
2019-03-28T12:22:57.283Z,24.83
2019-03-28T12:25:28.625Z,17.05
2019-03-28T12:28:00.508Z,23.27
2019-03-28T12:30:32.039Z,20.72
2019-03-28T12:33:03.364Z,24.02
2019-03-28T12:35:34.650Z,19.98
2019-03-28T12:38:05.999Z,28.45
2019-03-28T12:40:37.385Z,25.77
2019-03-28T12:43:08.717Z,18.90
2019-03-28T12:45:40.007Z,19.40
2019-03-28T12:48:11.407Z,20.77
2019-03-28T12:50:42.620Z,23.15
2019-03-28T12:53:13.903Z,20.97
2019-03-28T12:55:45.263Z,20.05
2019-03-28T12:58:16.447Z,21.57
2019-03-28T13:00:47.758Z,23.18
2019-03-28T13:03:19.114Z,16.10
2019-03-28T13:05:50.415Z,20.68
2019-03-28T13:08:21.741Z,19.80
2019-03-28T13:10:53.624Z,17.40
2019-03-28T13:13:24.916Z,25.15
2019-03-28T13:15:56.081Z,17.92
2019-03-28T13:18:27.292Z,24.10
2019-03-28T13:21:12.355Z,16.77
2019-03-28T13:23:31.610Z,20.43
2019-03-28T13:26:03.037Z,17.37
2019-03-28T13:28:34.340Z,15.95
2019-03-28T13:31:05.669Z,12.30
2019-03-28T13:33:36.973Z,16.20
2019-03-28T13:36:08.292Z,15.55
2019-03-28T13:38:39.585Z,20.03
2019-03-28T13:41:10.901Z,20.02
2019-03-28T13:43:42.122Z,17.80
2019-03-28T13:46:13.495Z,15.85
2019-03-28T13:48:44.802Z,18.23
2019-03-28T13:51:16.109Z,12.85
2019-03-28T13:53:47.448Z,16.73
2019-03-28T13:56:18.688Z,13.80
2019-03-28T13:58:50.029Z,19.30
2019-03-28T14:01:22.540Z,17.40
2019-03-28T14:03:53.978Z,15.23
2019-03-28T14:06:25.311Z,15.18
2019-03-28T14:08:56.565Z,15.48
2019-03-28T14:11:27.948Z,17.70
2019-03-28T14:13:59.235Z,14.45
2019-03-28T14:16:30.510Z,13.38
2019-03-28T14:19:01.746Z,15.70
2019-03-28T14:21:33.198Z,17.73
2019-03-28T14:24:04.647Z,12.82
2019-03-28T14:26:37.589Z,18.62
2019-03-28T14:29:09.081Z,11.93
2019-03-28T14:31:40.430Z,16.37
2019-03-28T14:34:11.679Z,12.83
2019-03-28T14:36:43.101Z,21.50
2019-03-28T14:39:14.423Z,16.23
2019-03-28T14:41:46.476Z,21.75
2019-03-28T14:44:18.100Z,14.38
2019-03-28T14:46:49.418Z,18.82
2019-03-28T14:49:20.715Z,17.27
2019-03-28T14:51:52.185Z,18.73
2019-03-28T14:54:23.508Z,12.93
2019-03-28T14:56:56.012Z,18.67
2019-03-28T14:59:32.915Z,15.20
2019-03-28T15:02:01.388Z,16.82
2019-03-28T15:04:32.775Z,12.25
2019-03-28T15:07:07.159Z,11.43
2019-03-28T15:09:37.781Z,14.65
2019-03-28T15:12:09.259Z,14.13
2019-03-28T15:14:40.586Z,14.80
2019-03-28T15:17:11.973Z,14.63
2019-03-28T15:19:43.404Z,11.78
2019-03-28T15:22:14.780Z,16.30
2019-03-28T15:24:46.037Z,11.55
2019-03-28T15:27:17.472Z,15.13
2019-03-28T15:29:48.711Z,15.35
2019-03-28T15:32:20.118Z,14.15
2019-03-28T15:34:51.450Z,16.37
2019-03-28T15:37:22.815Z,10.80
2019-03-28T15:39:54.166Z,17.60
2019-03-28T15:42:27.983Z,10.95
2019-03-28T15:44:58.645Z,16.57
2019-03-28T15:47:30.063Z,14.58
2019-03-28T15:50:03.037Z,15.60
2019-03-28T15:52:34.452Z,13.75
2019-03-28T15:55:06.033Z,15.40
2019-03-28T15:57:40.708Z,16.23
2019-03-28T16:00:12.063Z,15.25
2019-03-28T16:02:43.402Z,14.85
2019-03-28T16:05:14.929Z,15.10
2019-03-28T16:07:47.494Z,18.55
2019-03-28T16:10:19.638Z,16.48
2019-03-28T16:12:50.956Z,16.27
2019-03-28T16:15:22.510Z,13.90
2019-03-28T16:17:53.968Z,15.63
2019-03-28T16:20:25.324Z,13.38
2019-03-28T16:22:56.759Z,13.30
2019-03-28T16:25:28.158Z,15.28
2019-03-28T16:27:59.565Z,15.90
2019-03-28T16:30:39.348Z,13.20
2019-03-28T16:33:11.124Z,17.00
2019-03-28T16:35:52.173Z,16.60
2019-03-28T16:38:42.453Z,10.13
2019-03-28T16:41:13.923Z,14.23
2019-03-28T16:43:45.254Z,13.98
2019-03-28T16:46:16.669Z,12.47
2019-03-28T16:48:53.507Z,18.05
2019-03-28T16:51:25.787Z,14.23
2019-03-28T16:53:57.323Z,16.05
2019-03-28T16:56:31.826Z,14.87
2019-03-28T16:59:03.261Z,15.77
2019-03-28T17:01:34.702Z,20.48
2019-03-28T17:04:19.758Z,15.28
2019-03-28T17:06:39.683Z,21.23
2019-03-28T17:09:11.033Z,17.60
2019-03-28T17:11:42.431Z,15.63
2019-03-28T17:14:13.764Z,14.33
2019-03-28T17:16:45.112Z,13.83
2019-03-28T17:19:16.496Z,17.07
2019-03-28T17:21:47.910Z,17.00
2019-03-28T17:24:19.371Z,20.00
2019-03-28T17:26:51.455Z,15.20
2019-03-28T17:29:22.850Z,17.20
2019-03-28T17:31:54.255Z,16.27
2019-03-28T17:34:34.817Z,13.08
2019-03-28T17:36:58.636Z,18.25
2019-03-28T17:39:30.132Z,19.98
2019-03-28T17:42:01.473Z,17.90
2019-03-28T17:44:33.335Z,21.75
2019-03-28T17:47:05.303Z,14.33
2019-03-28T17:49:36.671Z,16.23
2019-03-28T17:52:08.018Z,12.95
2019-03-28T17:54:39.373Z,17.90
2019-03-28T17:57:10.653Z,14.68
2019-03-28T17:59:45.198Z,16.07
2019-03-28T18:02:15.111Z,14.80
2019-03-28T18:04:48.189Z,18.27
2019-03-28T18:07:19.643Z,17.98
2019-03-28T18:09:51.019Z,13.08
2019-03-28T18:12:22.422Z,16.00
2019-03-28T18:14:53.772Z,13.33
2019-03-28T18:17:25.709Z,19.23
2019-03-28T18:19:57.078Z,23.38
2019-03-28T18:22:28.556Z,12.70
2019-03-28T18:24:59.876Z,15.55
2019-03-28T18:27:31.231Z,22.27
2019-03-28T18:30:05.287Z,16.97
2019-03-28T18:32:37.951Z,11.00
2019-03-28T18:35:09.002Z,9.50
2019-03-28T18:37:40.301Z,11.57
2019-03-28T18:40:12.143Z,11.97
2019-03-28T18:42:43.475Z,14.83
2019-03-28T18:45:15.246Z,12.58
2019-03-28T18:47:47.971Z,16.20
2019-03-28T18:50:19.359Z,16.23
2019-03-28T18:52:50.768Z,17.27
2019-03-28T18:55:22.169Z,10.90
2019-03-28T18:57:53.561Z,15.98
2019-03-28T19:00:24.955Z,11.68
2019-03-28T19:02:56.292Z,11.00
2019-03-28T19:05:27.683Z,17.62
2019-03-28T19:07:59.022Z,17.25
2019-03-28T19:10:30.404Z,14.03
2019-03-28T19:13:04.508Z,18.43
2019-03-28T19:15:34.985Z,19.48
2019-03-28T19:18:06.324Z,11.68
2019-03-28T19:20:40.053Z,16.82
2019-03-28T19:23:11.412Z,13.50
2019-03-28T19:25:42.748Z,10.55
2019-03-28T19:28:27.646Z,18.02
2019-03-28T19:30:47.114Z,15.68
2019-03-28T19:33:18.530Z,16.73
2019-03-28T19:35:51.106Z,17.12
2019-03-28T19:38:22.635Z,16.48
2019-03-28T19:40:54.034Z,23.13
2019-03-28T19:43:25.947Z,16.52
2019-03-28T19:45:57.268Z,16.40
2019-03-28T19:48:28.654Z,19.05
2019-03-28T19:51:00.043Z,13.03
2019-03-28T19:53:31.439Z,23.12
2019-03-28T19:56:02.798Z,10.80
2019-03-28T19:58:35.206Z,14.03
2019-03-28T20:01:07.168Z,18.52
2019-03-28T20:03:38.682Z,15.43
2019-03-28T20:06:21.698Z,12.20
2019-03-28T20:08:43.172Z,13.40
2019-03-28T20:11:14.533Z,13.87
2019-03-28T20:13:45.821Z,22.07
2019-03-28T20:16:17.177Z,16.35
2019-03-28T20:18:48.542Z,15.08
2019-03-28T20:21:19.914Z,14.53
2019-03-28T20:23:51.293Z,18.62
2019-03-28T20:26:22.665Z,16.02
2019-03-28T20:28:54.005Z,18.00
2019-03-28T20:31:25.409Z,22.67
2019-03-28T20:33:56.790Z,21.27
2019-03-28T20:36:37.419Z,16.30
2019-03-28T20:39:06.204Z,16.85
2019-03-28T20:41:37.991Z,29.27
2019-03-28T20:44:11.705Z,21.15
2019-03-28T20:46:42.502Z,16.12
2019-03-28T20:49:13.789Z,21.87
2019-03-28T20:51:45.117Z,15.88
2019-03-28T20:54:16.471Z,17.40
2019-03-28T20:56:47.882Z,17.12
2019-03-28T20:59:19.175Z,18.32
2019-03-28T21:01:50.519Z,11.95
2019-03-28T21:04:31.162Z,17.03
2019-03-28T21:06:55.463Z,17.87
2019-03-28T21:09:27.666Z,20.17
2019-03-28T21:12:00.128Z,23.00
2019-03-28T21:14:31.565Z,20.25
2019-03-28T21:17:03.194Z,20.48
2019-03-28T21:19:34.541Z,26.57
2019-03-28T21:22:06.099Z,21.20
2019-03-28T21:24:37.409Z,29.90
2019-03-28T21:27:10.161Z,22.85
2019-03-28T21:29:48.698Z,24.77
2019-03-28T21:32:14.611Z,25.23
2019-03-28T21:34:46.843Z,25.17
2019-03-28T21:37:18.615Z,28.35
2019-03-28T21:39:50.266Z,28.00
2019-03-28T21:42:21.609Z,20.90
2019-03-28T21:44:52.937Z,24.45
2019-03-28T21:47:24.815Z,28.23
2019-03-28T21:49:56.240Z,29.42
2019-03-28T21:52:27.491Z,22.35
2019-03-28T21:55:00.395Z,28.80
2019-03-28T21:57:31.747Z,21.93
2019-03-28T22:00:03.472Z,20.02
2019-03-28T22:02:35.967Z,26.55
2019-03-28T22:05:08.767Z,24.82
2019-03-28T22:07:41.118Z,31.12
2019-03-28T22:10:12.971Z,26.93
2019-03-28T22:12:44.590Z,29.90
2019-03-28T22:15:16.226Z,23.55
2019-03-28T22:17:47.957Z,28.55
2019-03-28T22:20:19.540Z,31.62
2019-03-28T22:22:51.184Z,24.43
2019-03-28T22:25:22.875Z,24.25
2019-03-28T22:27:54.567Z,29.98
2019-03-28T22:30:26.278Z,24.83
2019-03-28T22:32:57.954Z,25.50
2019-03-28T22:35:29.601Z,29.90
2019-03-28T22:38:01.247Z,23.92
2019-03-28T22:40:32.923Z,21.93
2019-03-28T22:43:04.527Z,31.40
2019-03-28T22:45:36.118Z,28.45
2019-03-28T22:48:11.055Z,25.57
2019-03-28T22:50:41.185Z,30.27
2019-03-28T22:53:12.820Z,29.82
2019-03-28T22:55:44.673Z,27.32
2019-03-28T22:58:16.370Z,26.10
2019-03-28T23:00:49.290Z,20.55
2019-03-28T23:03:21.167Z,23.27
2019-03-28T23:05:52.754Z,21.50
2019-03-28T23:08:24.446Z,25.48
2019-03-28T23:10:56.046Z,24.18
2019-03-28T23:13:27.712Z,23.02
2019-03-28T23:15:59.414Z,29.10
2019-03-28T23:18:31.176Z,28.12
2019-03-28T23:21:02.850Z,32.70
2019-03-28T23:23:34.544Z,29.30
2019-03-28T23:26:06.130Z,27.35
2019-03-28T23:28:37.780Z,25.87
2019-03-28T23:31:09.342Z,27.85
2019-03-28T23:33:41.105Z,34.20
2019-03-28T23:36:12.722Z,40.65
2019-03-28T23:38:44.340Z,30.48
2019-03-28T23:41:16.058Z,27.05
2019-03-28T23:43:47.566Z,37.75
2019-03-28T23:46:19.100Z,34.38
2019-03-28T23:48:50.682Z,34.90
2019-03-28T23:51:22.282Z,42.53
2019-03-28T23:53:53.866Z,30.60
2019-03-28T23:56:25.524Z,31.27
2019-03-28T23:58:57.167Z,31.13
